sensor_id;sensor_type;location;lat;lon;timestamp;temperature;humidity
2010;DHT22;1008;47.404;8.502;2022-09-13T00:01:00;19.20;99.90
2010;DHT22;1008;47.404;8.502;2022-09-13T00:03:27;19.00;99.90
2010;DHT22;1008;47.404;8.502;2022-09-13T00:05:54;18.70;99.90
2010;DHT22;1008;47.404;8.502;2022-09-13T00:08:22;18.60;99.90
2010;DHT22;1008;47.404;8.502;2022-09-13T00:10:49;18.60;99.90
2010;DHT22;1008;47.404;8.502;2022-09-13T00:13:17;18.70;99.90
2010;DHT22;1008;47.404;8.502;2022-09-13T00:15:44;18.70;99.90
2010;DHT22;1008;47.404;8.502;2022-09-13T00:18:11;18.50;99.90
2010;DHT22;1008;47.404;8.502;2022-09-13T00:20:38;18.60;99.90
2010;DHT22;1008;47.404;8.502;2022-09-13T00:23:05;18.50;99.90
2010;DHT22;1008;47.404;8.502;2022-09-13T00:25:33;18.60;99.90
2010;DHT22;1008;47.404;8.502;2022-09-13T00:28:00;18.70;99.90
2010;DHT22;1008;47.404;8.502;2022-09-13T00:30:27;18.60;99.90
2010;DHT22;1008;47.404;8.502;2022-09-13T00:32:54;18.50;99.90
2010;DHT22;1008;47.404;8.502;2022-09-13T00:35:21;18.40;99.90
2010;DHT22;1008;47.404;8.502;2022-09-13T00:37:48;18.50;99.90
2010;DHT22;1008;47.404;8.502;2022-09-13T00:40:15;18.30;99.90
2010;DHT22;1008;47.404;8.502;2022-09-13T00:42:43;18.10;99.90
2010;DHT22;1008;47.404;8.502;2022-09-13T00:45:15;18.30;99.90
2010;DHT22;1008;47.404;8.502;2022-09-13T00:47:45;18.00;99.90
2010;DHT22;1008;47.404;8.502;2022-09-13T00:50:20;18.40;99.90
2010;DHT22;1008;47.404;8.502;2022-09-13T00:52:51;18.40;99.90
2010;DHT22;1008;47.404;8.502;2022-09-13T00:55:23;18.50;99.90
2010;DHT22;1008;47.404;8.502;2022-09-13T00:57:57;18.40;99.90
2010;DHT22;1008;47.404;8.502;2022-09-13T01:00:26;18.30;99.90
2010;DHT22;1008;47.404;8.502;2022-09-13T01:02:56;18.80;99.90
2010;DHT22;1008;47.404;8.502;2022-09-13T01:05:26;18.50;99.90
2010;DHT22;1008;47.404;8.502;2022-09-13T01:07:54;18.90;99.90
2010;DHT22;1008;47.404;8.502;2022-09-13T01:10:22;18.60;99.90
2010;DHT22;1008;47.404;8.502;2022-09-13T01:12:53;18.70;99.90
2010;DHT22;1008;47.404;8.502;2022-09-13T01:15:22;18.80;99.90
2010;DHT22;1008;47.404;8.502;2022-09-13T01:17:50;18.60;99.90
2010;DHT22;1008;47.404;8.502;2022-09-13T01:20:18;18.60;99.90
2010;DHT22;1008;47.404;8.502;2022-09-13T01:23:35;18.70;99.90
2010;DHT22;1008;47.404;8.502;2022-09-13T01:29:41;18.40;99.90
2010;DHT22;1008;47.404;8.502;2022-09-13T01:32:21;18.30;99.90
2010;DHT22;1008;47.404;8.502;2022-09-13T01:34:57;18.10;99.90
2010;DHT22;1008;47.404;8.502;2022-09-13T01:37:42;18.00;99.90
2010;DHT22;1008;47.404;8.502;2022-09-13T01:40:17;18.00;99.90
2010;DHT22;1008;47.404;8.502;2022-09-13T01:43:05;18.10;99.90
2010;DHT22;1008;47.404;8.502;2022-09-13T01:45:45;18.10;99.90
2010;DHT22;1008;47.404;8.502;2022-09-13T01:48:19;18.00;99.90
2010;DHT22;1008;47.404;8.502;2022-09-13T01:50:51;18.10;99.90
2010;DHT22;1008;47.404;8.502;2022-09-13T01:53:31;18.10;99.90
2010;DHT22;1008;47.404;8.502;2022-09-13T01:56:05;18.30;99.90
2010;DHT22;1008;47.404;8.502;2022-09-13T01:58:40;18.20;99.90
2010;DHT22;1008;47.404;8.502;2022-09-13T02:01:12;18.20;99.90
2010;DHT22;1008;47.404;8.502;2022-09-13T02:03:47;18.20;99.90
2010;DHT22;1008;47.404;8.502;2022-09-13T02:06:20;18.30;99.90
2010;DHT22;1008;47.404;8.502;2022-09-13T02:08:50;18.30;99.90
2010;DHT22;1008;47.404;8.502;2022-09-13T02:11:18;18.00;99.90
2010;DHT22;1008;47.404;8.502;2022-09-13T02:13:58;17.80;99.90
2010;DHT22;1008;47.404;8.502;2022-09-13T02:16:28;18.00;99.90
2010;DHT22;1008;47.404;8.502;2022-09-13T02:19:01;18.10;99.90
2010;DHT22;1008;47.404;8.502;2022-09-13T02:21:33;18.00;99.90
2010;DHT22;1008;47.404;8.502;2022-09-13T02:24:06;18.10;99.90
2010;DHT22;1008;47.404;8.502;2022-09-13T02:26:34;18.00;99.90
2010;DHT22;1008;47.404;8.502;2022-09-13T02:29:07;17.80;99.90
2010;DHT22;1008;47.404;8.502;2022-09-13T02:31:41;17.60;99.90
2010;DHT22;1008;47.404;8.502;2022-09-13T02:34:14;17.80;99.90
2010;DHT22;1008;47.404;8.502;2022-09-13T02:36:44;17.80;99.90
2010;DHT22;1008;47.404;8.502;2022-09-13T02:39:13;17.80;99.90
2010;DHT22;1008;47.404;8.502;2022-09-13T02:41:47;17.70;99.90
2010;DHT22;1008;47.404;8.502;2022-09-13T02:44:23;17.70;99.90
2010;DHT22;1008;47.404;8.502;2022-09-13T02:47:09;17.60;99.90
2010;DHT22;1008;47.404;8.502;2022-09-13T02:49:47;17.60;99.90
2010;DHT22;1008;47.404;8.502;2022-09-13T02:52:20;17.50;99.90
2010;DHT22;1008;47.404;8.502;2022-09-13T02:54:52;17.50;99.90
2010;DHT22;1008;47.404;8.502;2022-09-13T02:57:27;17.60;99.90
2010;DHT22;1008;47.404;8.502;2022-09-13T02:59:55;17.60;99.90
2010;DHT22;1008;47.404;8.502;2022-09-13T03:02:24;17.60;99.90
2010;DHT22;1008;47.404;8.502;2022-09-13T03:04:54;17.50;99.90
2010;DHT22;1008;47.404;8.502;2022-09-13T03:07:22;17.50;99.90
2010;DHT22;1008;47.404;8.502;2022-09-13T03:09:51;17.70;99.90
2010;DHT22;1008;47.404;8.502;2022-09-13T03:12:33;17.60;99.90
2010;DHT22;1008;47.404;8.502;2022-09-13T03:15:09;17.60;99.90
2010;DHT22;1008;47.404;8.502;2022-09-13T03:17:48;17.60;99.90
2010;DHT22;1008;47.404;8.502;2022-09-13T03:20:26;17.70;99.90
2010;DHT22;1008;47.404;8.502;2022-09-13T03:23:33;17.60;99.90
2010;DHT22;1008;47.404;8.502;2022-09-13T03:26:24;17.70;99.90
2010;DHT22;1008;47.404;8.502;2022-09-13T03:29:09;17.80;99.90
2010;DHT22;1008;47.404;8.502;2022-09-13T03:31:47;17.70;99.90
2010;DHT22;1008;47.404;8.502;2022-09-13T03:34:20;17.60;99.90
2010;DHT22;1008;47.404;8.502;2022-09-13T03:36:53;17.70;99.90
2010;DHT22;1008;47.404;8.502;2022-09-13T03:39:28;17.60;99.90
2010;DHT22;1008;47.404;8.502;2022-09-13T03:42:03;17.50;99.90
2010;DHT22;1008;47.404;8.502;2022-09-13T03:44:33;17.60;99.90
2010;DHT22;1008;47.404;8.502;2022-09-13T03:47:02;17.40;99.90
2010;DHT22;1008;47.404;8.502;2022-09-13T03:49:31;17.50;99.90
2010;DHT22;1008;47.404;8.502;2022-09-13T03:51:59;17.60;99.90
2010;DHT22;1008;47.404;8.502;2022-09-13T03:54:28;17.60;99.90
2010;DHT22;1008;47.404;8.502;2022-09-13T03:57:09;17.40;99.90
2010;DHT22;1008;47.404;8.502;2022-09-13T03:59:36;17.50;99.90
2010;DHT22;1008;47.404;8.502;2022-09-13T04:02:05;17.70;99.90
2010;DHT22;1008;47.404;8.502;2022-09-13T04:04:33;17.40;99.90
2010;DHT22;1008;47.404;8.502;2022-09-13T04:07:01;17.30;99.90
2010;DHT22;1008;47.404;8.502;2022-09-13T04:09:28;17.40;99.90
2010;DHT22;1008;47.404;8.502;2022-09-13T04:11:55;17.40;99.90
2010;DHT22;1008;47.404;8.502;2022-09-13T04:14:22;17.40;99.90
2010;DHT22;1008;47.404;8.502;2022-09-13T04:16:51;17.40;99.90
2010;DHT22;1008;47.404;8.502;2022-09-13T04:19:18;17.50;99.90
2010;DHT22;1008;47.404;8.502;2022-09-13T04:21:46;17.50;99.90
2010;DHT22;1008;47.404;8.502;2022-09-13T04:24:15;17.50;99.90
2010;DHT22;1008;47.404;8.502;2022-09-13T04:26:42;17.60;99.90
2010;DHT22;1008;47.404;8.502;2022-09-13T04:29:09;17.60;99.90
2010;DHT22;1008;47.404;8.502;2022-09-13T04:31:36;17.50;99.90
2010;DHT22;1008;47.404;8.502;2022-09-13T04:34:03;17.50;99.90
2010;DHT22;1008;47.404;8.502;2022-09-13T04:36:31;17.20;99.90
2010;DHT22;1008;47.404;8.502;2022-09-13T04:38:58;17.50;99.90
2010;DHT22;1008;47.404;8.502;2022-09-13T04:41:26;17.30;99.90
2010;DHT22;1008;47.404;8.502;2022-09-13T04:43:54;17.50;99.90
2010;DHT22;1008;47.404;8.502;2022-09-13T04:46:21;17.50;99.90
2010;DHT22;1008;47.404;8.502;2022-09-13T04:48:48;17.40;99.90
2010;DHT22;1008;47.404;8.502;2022-09-13T04:51:15;17.40;99.90
2010;DHT22;1008;47.404;8.502;2022-09-13T04:53:42;17.40;99.90
2010;DHT22;1008;47.404;8.502;2022-09-13T04:56:09;17.40;99.90
2010;DHT22;1008;47.404;8.502;2022-09-13T04:58:39;17.60;99.90
2010;DHT22;1008;47.404;8.502;2022-09-13T05:01:08;17.50;99.90
2010;DHT22;1008;47.404;8.502;2022-09-13T05:03:35;17.60;99.90
2010;DHT22;1008;47.404;8.502;2022-09-13T05:06:03;17.60;99.90
2010;DHT22;1008;47.404;8.502;2022-09-13T05:08:30;17.60;99.90
2010;DHT22;1008;47.404;8.502;2022-09-13T05:10:57;17.60;99.90
2010;DHT22;1008;47.404;8.502;2022-09-13T05:13:24;17.70;99.90
2010;DHT22;1008;47.404;8.502;2022-09-13T05:15:55;17.60;99.90
2010;DHT22;1008;47.404;8.502;2022-09-13T05:18:22;17.70;99.90
2010;DHT22;1008;47.404;8.502;2022-09-13T05:20:53;17.70;99.90
2010;DHT22;1008;47.404;8.502;2022-09-13T05:23:20;17.70;99.90
2010;DHT22;1008;47.404;8.502;2022-09-13T05:25:51;17.70;99.90
2010;DHT22;1008;47.404;8.502;2022-09-13T05:28:18;17.50;99.90
2010;DHT22;1008;47.404;8.502;2022-09-13T05:30:54;17.20;99.90
2010;DHT22;1008;47.404;8.502;2022-09-13T05:33:21;17.40;99.90
2010;DHT22;1008;47.404;8.502;2022-09-13T05:35:49;17.40;99.90
2010;DHT22;1008;47.404;8.502;2022-09-13T05:38:16;17.30;99.90
2010;DHT22;1008;47.404;8.502;2022-09-13T05:40:42;17.30;99.90
2010;DHT22;1008;47.404;8.502;2022-09-13T05:43:09;17.20;99.90
2010;DHT22;1008;47.404;8.502;2022-09-13T05:45:36;17.40;99.90
2010;DHT22;1008;47.404;8.502;2022-09-13T05:48:04;17.50;99.90
2010;DHT22;1008;47.404;8.502;2022-09-13T05:50:31;17.60;99.90
2010;DHT22;1008;47.404;8.502;2022-09-13T05:53:02;17.70;99.90
2010;DHT22;1008;47.404;8.502;2022-09-13T05:55:28;17.60;99.90
2010;DHT22;1008;47.404;8.502;2022-09-13T05:57:55;17.90;99.90
2010;DHT22;1008;47.404;8.502;2022-09-13T06:00:22;17.80;99.90
2010;DHT22;1008;47.404;8.502;2022-09-13T06:02:49;18.00;99.90
2010;DHT22;1008;47.404;8.502;2022-09-13T06:05:17;17.90;99.90
2010;DHT22;1008;47.404;8.502;2022-09-13T06:07:44;17.90;99.90
2010;DHT22;1008;47.404;8.502;2022-09-13T06:10:11;18.00;99.90
2010;DHT22;1008;47.404;8.502;2022-09-13T06:12:38;18.10;99.90
2010;DHT22;1008;47.404;8.502;2022-09-13T06:15:06;18.20;99.90
2010;DHT22;1008;47.404;8.502;2022-09-13T06:17:33;18.20;99.90
2010;DHT22;1008;47.404;8.502;2022-09-13T06:20:00;18.40;99.90
2010;DHT22;1008;47.404;8.502;2022-09-13T06:22:29;18.40;99.90
2010;DHT22;1008;47.404;8.502;2022-09-13T06:24:57;18.30;99.90
2010;DHT22;1008;47.404;8.502;2022-09-13T06:27:24;18.40;99.90
2010;DHT22;1008;47.404;8.502;2022-09-13T06:29:51;18.60;99.90
2010;DHT22;1008;47.404;8.502;2022-09-13T06:32:18;18.40;99.90
2010;DHT22;1008;47.404;8.502;2022-09-13T06:34:45;18.40;99.90
2010;DHT22;1008;47.404;8.502;2022-09-13T06:37:12;18.50;99.90
2010;DHT22;1008;47.404;8.502;2022-09-13T06:39:40;18.70;99.90
2010;DHT22;1008;47.404;8.502;2022-09-13T06:42:07;18.80;99.90
2010;DHT22;1008;47.404;8.502;2022-09-13T06:44:34;19.00;99.90
2010;DHT22;1008;47.404;8.502;2022-09-13T06:47:01;18.80;99.90
2010;DHT22;1008;47.404;8.502;2022-09-13T06:49:27;18.70;99.90
2010;DHT22;1008;47.404;8.502;2022-09-13T06:51:56;19.00;99.90
2010;DHT22;1008;47.404;8.502;2022-09-13T06:54:22;19.40;99.90
2010;DHT22;1008;47.404;8.502;2022-09-13T06:56:50;19.00;99.90
2010;DHT22;1008;47.404;8.502;2022-09-13T06:59:17;19.00;99.90
2010;DHT22;1008;47.404;8.502;2022-09-13T07:01:44;19.10;99.90
2010;DHT22;1008;47.404;8.502;2022-09-13T07:04:12;19.20;99.90
2010;DHT22;1008;47.404;8.502;2022-09-13T07:06:41;19.30;99.90
2010;DHT22;1008;47.404;8.502;2022-09-13T07:09:11;19.40;99.90
2010;DHT22;1008;47.404;8.502;2022-09-13T07:11:39;19.30;99.90
2010;DHT22;1008;47.404;8.502;2022-09-13T07:14:10;19.50;99.90
2010;DHT22;1008;47.404;8.502;2022-09-13T07:16:37;19.70;99.90
2010;DHT22;1008;47.404;8.502;2022-09-13T07:19:06;19.80;99.90
2010;DHT22;1008;47.404;8.502;2022-09-13T07:21:35;20.10;99.90
2010;DHT22;1008;47.404;8.502;2022-09-13T07:24:02;20.10;99.90
2010;DHT22;1008;47.404;8.502;2022-09-13T07:26:29;20.20;99.90
2010;DHT22;1008;47.404;8.502;2022-09-13T07:28:58;20.30;99.90
2010;DHT22;1008;47.404;8.502;2022-09-13T07:31:28;20.60;99.90
2010;DHT22;1008;47.404;8.502;2022-09-13T07:33:57;20.60;99.90
2010;DHT22;1008;47.404;8.502;2022-09-13T07:36:25;20.80;99.90
2010;DHT22;1008;47.404;8.502;2022-09-13T07:38:52;21.10;99.90
2010;DHT22;1008;47.404;8.502;2022-09-13T07:41:21;21.10;99.90
2010;DHT22;1008;47.404;8.502;2022-09-13T07:43:48;21.10;99.90
2010;DHT22;1008;47.404;8.502;2022-09-13T07:46:17;20.70;99.90
2010;DHT22;1008;47.404;8.502;2022-09-13T07:48:46;20.70;99.90
2010;DHT22;1008;47.404;8.502;2022-09-13T07:51:15;21.00;99.90
2010;DHT22;1008;47.404;8.502;2022-09-13T07:53:43;20.90;99.90
2010;DHT22;1008;47.404;8.502;2022-09-13T07:56:12;21.00;99.90
2010;DHT22;1008;47.404;8.502;2022-09-13T07:58:40;21.40;99.90
2010;DHT22;1008;47.404;8.502;2022-09-13T08:01:08;22.10;99.90
2010;DHT22;1008;47.404;8.502;2022-09-13T08:03:36;22.00;99.90
2010;DHT22;1008;47.404;8.502;2022-09-13T08:06:06;22.30;99.90
2010;DHT22;1008;47.404;8.502;2022-09-13T08:08:34;22.30;99.90
2010;DHT22;1008;47.404;8.502;2022-09-13T08:11:02;22.30;99.90
2010;DHT22;1008;47.404;8.502;2022-09-13T08:13:30;22.40;99.90
2010;DHT22;1008;47.404;8.502;2022-09-13T08:16:01;22.70;99.90
2010;DHT22;1008;47.404;8.502;2022-09-13T08:18:28;22.70;99.90
2010;DHT22;1008;47.404;8.502;2022-09-13T08:20:55;22.90;99.90
2010;DHT22;1008;47.404;8.502;2022-09-13T08:23:24;23.00;99.90
2010;DHT22;1008;47.404;8.502;2022-09-13T08:25:51;23.00;99.90
2010;DHT22;1008;47.404;8.502;2022-09-13T08:28:20;23.40;99.90
2010;DHT22;1008;47.404;8.502;2022-09-13T08:30:47;23.60;99.90
2010;DHT22;1008;47.404;8.502;2022-09-13T08:33:14;23.70;99.90
2010;DHT22;1008;47.404;8.502;2022-09-13T08:35:49;23.80;99.90
2010;DHT22;1008;47.404;8.502;2022-09-13T08:38:16;24.20;99.90
2010;DHT22;1008;47.404;8.502;2022-09-13T08:40:49;24.20;99.90
2010;DHT22;1008;47.404;8.502;2022-09-13T08:43:21;24.50;99.90
2010;DHT22;1008;47.404;8.502;2022-09-13T08:46:01;24.50;99.90
2010;DHT22;1008;47.404;8.502;2022-09-13T08:48:32;24.40;99.90
2010;DHT22;1008;47.404;8.502;2022-09-13T08:51:03;24.70;99.90
2010;DHT22;1008;47.404;8.502;2022-09-13T08:53:31;24.50;99.90
2010;DHT22;1008;47.404;8.502;2022-09-13T08:56:03;24.70;99.90
2010;DHT22;1008;47.404;8.502;2022-09-13T08:59:02;24.70;99.90
2010;DHT22;1008;47.404;8.502;2022-09-13T09:01:47;24.50;99.90
2010;DHT22;1008;47.404;8.502;2022-09-13T09:04:34;25.00;99.90
2010;DHT22;1008;47.404;8.502;2022-09-13T09:07:04;25.40;99.90
2010;DHT22;1008;47.404;8.502;2022-09-13T09:09:34;25.30;99.90
2010;DHT22;1008;47.404;8.502;2022-09-13T09:12:13;25.50;99.90
2010;DHT22;1008;47.404;8.502;2022-09-13T09:14:43;25.60;99.90
2010;DHT22;1008;47.404;8.502;2022-09-13T09:17:15;26.10;99.90
2010;DHT22;1008;47.404;8.502;2022-09-13T09:19:46;26.50;99.90
2010;DHT22;1008;47.404;8.502;2022-09-13T09:22:17;26.80;99.90
2010;DHT22;1008;47.404;8.502;2022-09-13T09:24:47;26.80;99.90
2010;DHT22;1008;47.404;8.502;2022-09-13T09:27:18;26.50;99.90
2010;DHT22;1008;47.404;8.502;2022-09-13T09:29:47;26.50;99.90
2010;DHT22;1008;47.404;8.502;2022-09-13T09:32:31;27.00;99.90
2010;DHT22;1008;47.404;8.502;2022-09-13T09:35:09;27.60;99.90
2010;DHT22;1008;47.404;8.502;2022-09-13T09:37:38;27.90;99.40
2010;DHT22;1008;47.404;8.502;2022-09-13T09:40:12;28.30;98.50
2010;DHT22;1008;47.404;8.502;2022-09-13T09:42:44;28.30;95.70
2010;DHT22;1008;47.404;8.502;2022-09-13T09:45:25;28.10;96.80
2010;DHT22;1008;47.404;8.502;2022-09-13T09:47:54;28.00;96.50
2010;DHT22;1008;47.404;8.502;2022-09-13T09:50:24;27.90;96.50
2010;DHT22;1008;47.404;8.502;2022-09-13T09:52:58;28.10;95.70
2010;DHT22;1008;47.404;8.502;2022-09-13T09:55:28;28.30;94.60
2010;DHT22;1008;47.404;8.502;2022-09-13T09:57:58;28.20;95.80
2010;DHT22;1008;47.404;8.502;2022-09-13T10:00:26;28.10;95.50
2010;DHT22;1008;47.404;8.502;2022-09-13T10:02:57;28.10;95.40
2010;DHT22;1008;47.404;8.502;2022-09-13T10:05:26;28.00;94.90
2010;DHT22;1008;47.404;8.502;2022-09-13T10:07:57;28.20;97.70
2010;DHT22;1008;47.404;8.502;2022-09-13T10:10:31;28.10;94.90
2010;DHT22;1008;47.404;8.502;2022-09-13T10:13:04;28.40;94.60
2010;DHT22;1008;47.404;8.502;2022-09-13T10:15:33;28.60;94.90
2010;DHT22;1008;47.404;8.502;2022-09-13T10:18:13;28.70;94.30
2010;DHT22;1008;47.404;8.502;2022-09-13T10:20:41;28.70;93.10
2010;DHT22;1008;47.404;8.502;2022-09-13T10:23:16;28.30;92.70
2010;DHT22;1008;47.404;8.502;2022-09-13T10:25:44;28.10;94.50
2010;DHT22;1008;47.404;8.502;2022-09-13T10:28:16;28.90;93.70
2010;DHT22;1008;47.404;8.502;2022-09-13T10:30:46;29.20;92.20
2010;DHT22;1008;47.404;8.502;2022-09-13T10:33:27;29.00;91.80
2010;DHT22;1008;47.404;8.502;2022-09-13T10:35:57;29.30;90.30
2010;DHT22;1008;47.404;8.502;2022-09-13T10:38:28;29.30;89.70
2010;DHT22;1008;47.404;8.502;2022-09-13T10:40:56;29.70;88.70
2010;DHT22;1008;47.404;8.502;2022-09-13T10:43:27;29.60;85.10
2010;DHT22;1008;47.404;8.502;2022-09-13T10:45:54;29.30;85.00
2010;DHT22;1008;47.404;8.502;2022-09-13T10:48:22;29.10;86.00
2010;DHT22;1008;47.404;8.502;2022-09-13T10:51:05;29.30;83.10
2010;DHT22;1008;47.404;8.502;2022-09-13T10:53:35;29.30;85.50
2010;DHT22;1008;47.404;8.502;2022-09-13T10:56:03;29.60;84.20
2010;DHT22;1008;47.404;8.502;2022-09-13T10:58:31;29.90;84.60
2010;DHT22;1008;47.404;8.502;2022-09-13T11:06:48;30.80;81.20
2010;DHT22;1008;47.404;8.502;2022-09-13T11:09:22;30.90;83.10
2010;DHT22;1008;47.404;8.502;2022-09-13T11:11:55;30.70;81.30
2010;DHT22;1008;47.404;8.502;2022-09-13T11:14:38;30.40;84.20
2010;DHT22;1008;47.404;8.502;2022-09-13T11:17:16;30.30;84.70
2010;DHT22;1008;47.404;8.502;2022-09-13T11:20:03;30.10;84.00
2010;DHT22;1008;47.404;8.502;2022-09-13T11:22:56;29.70;84.70
2010;DHT22;1008;47.404;8.502;2022-09-13T11:25:37;29.70;84.70
2010;DHT22;1008;47.404;8.502;2022-09-13T11:28:17;29.70;84.30
2010;DHT22;1008;47.404;8.502;2022-09-13T11:31:00;29.80;83.80
2010;DHT22;1008;47.404;8.502;2022-09-13T11:33:37;30.00;83.90
2010;DHT22;1008;47.404;8.502;2022-09-13T11:36:22;30.10;82.30
2010;DHT22;1008;47.404;8.502;2022-09-13T11:39:00;30.30;81.70
2010;DHT22;1008;47.404;8.502;2022-09-13T11:41:37;30.70;86.00
2010;DHT22;1008;47.404;8.502;2022-09-13T11:44:22;30.80;80.90
2010;DHT22;1008;47.404;8.502;2022-09-13T11:46:58;30.70;79.10
2010;DHT22;1008;47.404;8.502;2022-09-13T11:49:36;30.00;80.50
2010;DHT22;1008;47.404;8.502;2022-09-13T11:52:14;29.70;83.50
2010;DHT22;1008;47.404;8.502;2022-09-13T11:54:54;29.60;81.00
2010;DHT22;1008;47.404;8.502;2022-09-13T11:57:28;29.60;79.20
2010;DHT22;1008;47.404;8.502;2022-09-13T11:59:57;29.70;79.50
2010;DHT22;1008;47.404;8.502;2022-09-13T12:02:31;29.80;80.80
2010;DHT22;1008;47.404;8.502;2022-09-13T12:05:05;30.00;80.50
2010;DHT22;1008;47.404;8.502;2022-09-13T12:07:37;30.00;78.80
2010;DHT22;1008;47.404;8.502;2022-09-13T12:10:14;29.80;78.30
2010;DHT22;1008;47.404;8.502;2022-09-13T12:12:42;29.90;79.60
2010;DHT22;1008;47.404;8.502;2022-09-13T12:15:15;30.30;78.70
2010;DHT22;1008;47.404;8.502;2022-09-13T12:17:47;30.40;74.30
2010;DHT22;1008;47.404;8.502;2022-09-13T12:20:22;30.40;75.00
2010;DHT22;1008;47.404;8.502;2022-09-13T12:22:54;30.40;76.00
2010;DHT22;1008;47.404;8.502;2022-09-13T12:25:24;30.30;73.50
2010;DHT22;1008;47.404;8.502;2022-09-13T12:27:57;30.10;76.90
2010;DHT22;1008;47.404;8.502;2022-09-13T12:30:31;30.10;73.40
2010;DHT22;1008;47.404;8.502;2022-09-13T12:33:00;30.10;75.00
2010;DHT22;1008;47.404;8.502;2022-09-13T12:35:33;30.00;75.60
2010;DHT22;1008;47.404;8.502;2022-09-13T12:38:19;30.00;78.00
2010;DHT22;1008;47.404;8.502;2022-09-13T12:41:01;30.20;78.40
2010;DHT22;1008;47.404;8.502;2022-09-13T12:43:55;30.30;73.50
2010;DHT22;1008;47.404;8.502;2022-09-13T12:46:44;30.30;72.50
2010;DHT22;1008;47.404;8.502;2022-09-13T12:49:35;30.10;73.30
2010;DHT22;1008;47.404;8.502;2022-09-13T12:52:29;29.40;72.90
2010;DHT22;1008;47.404;8.502;2022-09-13T12:55:18;29.50;74.00
2010;DHT22;1008;47.404;8.502;2022-09-13T12:57:52;29.50;72.40
2010;DHT22;1008;47.404;8.502;2022-09-13T13:00:22;29.30;74.10
2010;DHT22;1008;47.404;8.502;2022-09-13T13:03:00;29.30;71.30
2010;DHT22;1008;47.404;8.502;2022-09-13T13:05:33;29.20;70.30
2010;DHT22;1008;47.404;8.502;2022-09-13T13:08:02;29.00;71.40
2010;DHT22;1008;47.404;8.502;2022-09-13T13:10:32;29.00;70.60
2010;DHT22;1008;47.404;8.502;2022-09-13T13:13:11;29.00;70.20
2010;DHT22;1008;47.404;8.502;2022-09-13T13:16:01;29.10;70.80
2010;DHT22;1008;47.404;8.502;2022-09-13T13:18:30;29.20;71.50
2010;DHT22;1008;47.404;8.502;2022-09-13T13:21:26;29.00;72.20
2010;DHT22;1008;47.404;8.502;2022-09-13T13:27:34;28.80;74.60
2010;DHT22;1008;47.404;8.502;2022-09-13T13:33:12;29.20;75.00
2010;DHT22;1008;47.404;8.502;2022-09-13T13:35:40;29.10;73.30
2010;DHT22;1008;47.404;8.502;2022-09-13T13:38:16;29.20;74.10
2010;DHT22;1008;47.404;8.502;2022-09-13T13:41:05;29.30;75.30
2010;DHT22;1008;47.404;8.502;2022-09-13T13:43:33;29.50;77.60
2010;DHT22;1008;47.404;8.502;2022-09-13T13:46:27;29.70;81.40
2010;DHT22;1008;47.404;8.502;2022-09-13T13:48:55;29.50;83.30
2010;DHT22;1008;47.404;8.502;2022-09-13T13:51:23;29.50;85.60
2010;DHT22;1008;47.404;8.502;2022-09-13T13:53:58;29.50;87.50
2010;DHT22;1008;47.404;8.502;2022-09-13T13:59:18;29.10;85.30
2010;DHT22;1008;47.404;8.502;2022-09-13T14:01:50;29.10;86.20
2010;DHT22;1008;47.404;8.502;2022-09-13T14:04:46;28.80;89.30
2010;DHT22;1008;47.404;8.502;2022-09-13T14:10:19;28.80;90.10
2010;DHT22;1008;47.404;8.502;2022-09-13T14:13:01;29.00;90.80
2010;DHT22;1008;47.404;8.502;2022-09-13T14:15:43;28.90;91.50
2010;DHT22;1008;47.404;8.502;2022-09-13T14:21:20;29.10;91.30
2010;DHT22;1008;47.404;8.502;2022-09-13T14:23:48;29.10;91.70
2010;DHT22;1008;47.404;8.502;2022-09-13T14:26:16;29.30;92.80
2010;DHT22;1008;47.404;8.502;2022-09-13T14:28:43;29.50;94.00
2010;DHT22;1008;47.404;8.502;2022-09-13T14:31:16;29.60;94.30
2010;DHT22;1008;47.404;8.502;2022-09-13T14:33:45;29.40;93.90
2010;DHT22;1008;47.404;8.502;2022-09-13T14:36:17;29.50;93.80
2010;DHT22;1008;47.404;8.502;2022-09-13T14:38:49;29.30;94.00
2010;DHT22;1008;47.404;8.502;2022-09-13T14:41:19;29.20;93.60
2010;DHT22;1008;47.404;8.502;2022-09-13T14:43:48;29.10;94.00
2010;DHT22;1008;47.404;8.502;2022-09-13T14:46:20;29.00;94.70
2010;DHT22;1008;47.404;8.502;2022-09-13T14:48:49;28.80;94.70
2010;DHT22;1008;47.404;8.502;2022-09-13T14:51:20;28.90;95.50
2010;DHT22;1008;47.404;8.502;2022-09-13T14:53:51;28.80;96.40
2010;DHT22;1008;47.404;8.502;2022-09-13T14:56:27;28.70;97.00
2010;DHT22;1008;47.404;8.502;2022-09-13T14:58:58;28.40;97.20
2010;DHT22;1008;47.404;8.502;2022-09-13T15:01:28;28.40;98.80
2010;DHT22;1008;47.404;8.502;2022-09-13T15:03:56;28.30;99.00
2010;DHT22;1008;47.404;8.502;2022-09-13T15:06:25;28.00;99.20
2010;DHT22;1008;47.404;8.502;2022-09-13T15:08:56;28.10;99.90
2010;DHT22;1008;47.404;8.502;2022-09-13T15:11:31;28.00;99.90
2010;DHT22;1008;47.404;8.502;2022-09-13T15:14:22;28.10;99.90
2010;DHT22;1008;47.404;8.502;2022-09-13T15:16:52;28.00;99.90
2010;DHT22;1008;47.404;8.502;2022-09-13T15:19:40;27.90;99.90
2010;DHT22;1008;47.404;8.502;2022-09-13T15:22:14;27.90;99.90
2010;DHT22;1008;47.404;8.502;2022-09-13T15:24:45;28.00;99.90
2010;DHT22;1008;47.404;8.502;2022-09-13T15:27:20;27.90;99.90
2010;DHT22;1008;47.404;8.502;2022-09-13T15:29:49;27.90;99.90
2010;DHT22;1008;47.404;8.502;2022-09-13T15:32:27;27.90;99.90
2010;DHT22;1008;47.404;8.502;2022-09-13T15:34:56;27.40;99.90
2010;DHT22;1008;47.404;8.502;2022-09-13T15:37:29;27.40;99.90
2010;DHT22;1008;47.404;8.502;2022-09-13T15:40:15;27.20;99.90
2010;DHT22;1008;47.404;8.502;2022-09-13T15:42:48;27.40;99.90
2010;DHT22;1008;47.404;8.502;2022-09-13T15:45:16;27.60;99.90
2010;DHT22;1008;47.404;8.502;2022-09-13T15:47:44;27.20;99.90
2010;DHT22;1008;47.404;8.502;2022-09-13T15:50:19;27.00;99.90
2010;DHT22;1008;47.404;8.502;2022-09-13T15:52:46;26.90;99.90
2010;DHT22;1008;47.404;8.502;2022-09-13T15:55:12;26.80;99.90
2010;DHT22;1008;47.404;8.502;2022-09-13T15:57:39;26.60;99.90
2010;DHT22;1008;47.404;8.502;2022-09-13T16:00:14;26.70;99.90
2010;DHT22;1008;47.404;8.502;2022-09-13T16:02:41;26.80;99.90
2010;DHT22;1008;47.404;8.502;2022-09-13T16:05:08;26.80;99.90
2010;DHT22;1008;47.404;8.502;2022-09-13T16:07:36;26.70;99.90
2010;DHT22;1008;47.404;8.502;2022-09-13T16:10:06;26.80;99.90
2010;DHT22;1008;47.404;8.502;2022-09-13T16:12:35;26.80;99.90
2010;DHT22;1008;47.404;8.502;2022-09-13T16:15:02;26.70;99.90
2010;DHT22;1008;47.404;8.502;2022-09-13T16:17:31;26.70;99.90
2010;DHT22;1008;47.404;8.502;2022-09-13T16:19:58;26.80;99.90
2010;DHT22;1008;47.404;8.502;2022-09-13T16:22:24;26.80;99.90
2010;DHT22;1008;47.404;8.502;2022-09-13T16:24:51;26.80;99.90
2010;DHT22;1008;47.404;8.502;2022-09-13T16:27:18;26.80;99.90
2010;DHT22;1008;47.404;8.502;2022-09-13T16:29:45;26.80;99.90
2010;DHT22;1008;47.404;8.502;2022-09-13T16:32:12;26.80;99.90
2010;DHT22;1008;47.404;8.502;2022-09-13T16:34:40;26.90;99.90
2010;DHT22;1008;47.404;8.502;2022-09-13T16:37:08;26.80;99.90
2010;DHT22;1008;47.404;8.502;2022-09-13T16:39:36;26.80;99.90
2010;DHT22;1008;47.404;8.502;2022-09-13T16:42:03;26.80;99.90
2010;DHT22;1008;47.404;8.502;2022-09-13T16:44:31;26.90;99.90
2010;DHT22;1008;47.404;8.502;2022-09-13T16:46:58;26.50;99.90
2010;DHT22;1008;47.404;8.502;2022-09-13T16:49:25;26.70;99.90
2010;DHT22;1008;47.404;8.502;2022-09-13T16:51:53;26.50;99.90
2010;DHT22;1008;47.404;8.502;2022-09-13T16:54:24;26.50;99.90
2010;DHT22;1008;47.404;8.502;2022-09-13T16:56:51;26.50;99.90